sensor_id;sensor_type;location;lat;lon;timestamp;P1;durP1;ratioP1;P2;durP2;ratioP2
48042;SDS011;33988;47.992;8.820;2023-03-01T00:01:39;17.27;;;9.05;;
48042;SDS011;33988;47.992;8.820;2023-03-01T00:04:06;15.30;;;8.20;;
48042;SDS011;33988;47.992;8.820;2023-03-01T00:06:33;16.38;;;9.25;;
48042;SDS011;33988;47.992;8.820;2023-03-01T00:09:04;16.33;;;9.25;;
48042;SDS011;33988;47.992;8.820;2023-03-01T00:11:34;13.85;;;8.35;;
48042;SDS011;33988;47.992;8.820;2023-03-01T00:14:03;12.45;;;8.43;;
48042;SDS011;33988;47.992;8.820;2023-03-01T00:16:34;12.63;;;7.95;;
48042;SDS011;33988;47.992;8.820;2023-03-01T00:19:06;12.77;;;7.90;;
48042;SDS011;33988;47.992;8.820;2023-03-01T00:21:38;12.45;;;7.00;;
48042;SDS011;33988;47.992;8.820;2023-03-01T00:24:06;10.60;;;7.25;;
48042;SDS011;33988;47.992;8.820;2023-03-01T00:26:34;11.45;;;7.00;;
48042;SDS011;33988;47.992;8.820;2023-03-01T00:29:01;11.27;;;7.45;;
48042;SDS011;33988;47.992;8.820;2023-03-01T00:31:31;11.07;;;7.00;;
48042;SDS011;33988;47.992;8.820;2023-03-01T00:34:01;16.55;;;8.13;;
48042;SDS011;33988;47.992;8.820;2023-03-01T00:36:32;11.30;;;7.40;;
48042;SDS011;33988;47.992;8.820;2023-03-01T00:39:05;10.98;;;7.22;;
48042;SDS011;33988;47.992;8.820;2023-03-01T00:41:38;12.77;;;7.53;;
48042;SDS011;33988;47.992;8.820;2023-03-01T00:44:08;10.77;;;7.30;;
48042;SDS011;33988;47.992;8.820;2023-03-01T00:46:38;11.20;;;6.90;;
48042;SDS011;33988;47.992;8.820;2023-03-01T00:49:05;11.50;;;7.35;;
48042;SDS011;33988;47.992;8.820;2023-03-01T00:51:37;11.55;;;7.22;;
48042;SDS011;33988;47.992;8.820;2023-03-01T00:54:05;9.88;;;6.65;;
48042;SDS011;33988;47.992;8.820;2023-03-01T00:56:34;10.95;;;6.93;;
48042;SDS011;33988;47.992;8.820;2023-03-01T00:59:01;13.07;;;7.97;;
48042;SDS011;33988;47.992;8.820;2023-03-01T01:01:31;11.30;;;7.32;;
48042;SDS011;33988;47.992;8.820;2023-03-01T01:03:59;11.80;;;6.97;;
48042;SDS011;33988;47.992;8.820;2023-03-01T01:06:29;13.05;;;8.18;;
48042;SDS011;33988;47.992;8.820;2023-03-01T01:08:59;14.85;;;8.10;;
48042;SDS011;33988;47.992;8.820;2023-03-01T01:11:29;11.88;;;7.32;;
48042;SDS011;33988;47.992;8.820;2023-03-01T01:13:56;11.82;;;7.53;;
48042;SDS011;33988;47.992;8.820;2023-03-01T01:16:24;15.02;;;8.60;;
48042;SDS011;33988;47.992;8.820;2023-03-01T01:18:55;12.10;;;8.13;;
48042;SDS011;33988;47.992;8.820;2023-03-01T01:21:23;11.50;;;7.68;;
48042;SDS011;33988;47.992;8.820;2023-03-01T01:23:51;12.50;;;7.78;;
48042;SDS011;33988;47.992;8.820;2023-03-01T01:26:20;11.68;;;7.95;;
48042;SDS011;33988;47.992;8.820;2023-03-01T01:28:52;11.75;;;7.55;;
48042;SDS011;33988;47.992;8.820;2023-03-01T01:31:20;11.85;;;7.95;;
48042;SDS011;33988;47.992;8.820;2023-03-01T01:33:53;12.55;;;8.45;;
48042;SDS011;33988;47.992;8.820;2023-03-01T01:36:26;13.40;;;8.25;;
48042;SDS011;33988;47.992;8.820;2023-03-01T01:38:55;13.93;;;8.93;;
48042;SDS011;33988;47.992;8.820;2023-03-01T01:41:24;13.38;;;8.52;;
48042;SDS011;33988;47.992;8.820;2023-03-01T01:46:51;13.60;;;8.77;;
48042;SDS011;33988;47.992;8.820;2023-03-01T01:49:35;13.07;;;8.43;;
48042;SDS011;33988;47.992;8.820;2023-03-01T01:52:07;14.80;;;8.93;;
48042;SDS011;33988;47.992;8.820;2023-03-01T01:57:39;13.85;;;8.07;;
48042;SDS011;33988;47.992;8.820;2023-03-01T02:00:12;13.25;;;8.13;;
48042;SDS011;33988;47.992;8.820;2023-03-01T02:02:49;13.13;;;8.13;;
48042;SDS011;33988;47.992;8.820;2023-03-01T02:05:26;14.00;;;8.95;;
48042;SDS011;33988;47.992;8.820;2023-03-01T02:08:21;13.88;;;8.73;;
48042;SDS011;33988;47.992;8.820;2023-03-01T02:10:56;15.05;;;8.60;;
48042;SDS011;33988;47.992;8.820;2023-03-01T02:13:26;14.23;;;8.32;;
48042;SDS011;33988;47.992;8.820;2023-03-01T02:15:56;16.48;;;8.80;;
48042;SDS011;33988;47.992;8.820;2023-03-01T02:18:23;17.83;;;10.13;;
48042;SDS011;33988;47.992;8.820;2023-03-01T02:24:02;13.93;;;8.55;;
48042;SDS011;33988;47.992;8.820;2023-03-01T02:26:47;15.18;;;8.93;;
48042;SDS011;33988;47.992;8.820;2023-03-01T02:29:18;14.18;;;8.30;;
48042;SDS011;33988;47.992;8.820;2023-03-01T02:31:48;16.00;;;9.45;;
48042;SDS011;33988;47.992;8.820;2023-03-01T02:34:18;15.40;;;8.55;;
48042;SDS011;33988;47.992;8.820;2023-03-01T02:36:49;14.40;;;8.90;;
48042;SDS011;33988;47.992;8.820;2023-03-01T02:39:37;13.95;;;8.63;;
48042;SDS011;33988;47.992;8.820;2023-03-01T02:42:11;14.93;;;9.40;;
48042;SDS011;33988;47.992;8.820;2023-03-01T02:44:43;14.43;;;8.63;;
48042;SDS011;33988;47.992;8.820;2023-03-01T02:47:10;13.93;;;8.98;;
48042;SDS011;33988;47.992;8.820;2023-03-01T02:49:40;13.70;;;8.75;;
48042;SDS011;33988;47.992;8.820;2023-03-01T02:57:25;12.77;;;8.38;;
48042;SDS011;33988;47.992;8.820;2023-03-01T02:59:59;13.35;;;8.68;;
48042;SDS011;33988;47.992;8.820;2023-03-01T03:02:34;13.18;;;8.75;;
48042;SDS011;33988;47.992;8.820;2023-03-01T03:07:38;14.98;;;9.50;;
48042;SDS011;33988;47.992;8.820;2023-03-01T03:10:10;13.55;;;8.75;;
48042;SDS011;33988;47.992;8.820;2023-03-01T03:12:42;12.88;;;8.35;;
48042;SDS011;33988;47.992;8.820;2023-03-01T03:15:09;14.23;;;9.13;;
48042;SDS011;33988;47.992;8.820;2023-03-01T03:17:39;13.57;;;8.75;;
48042;SDS011;33988;47.992;8.820;2023-03-01T03:20:11;15.00;;;8.80;;
48042;SDS011;33988;47.992;8.820;2023-03-01T03:22:46;16.02;;;9.20;;
48042;SDS011;33988;47.992;8.820;2023-03-01T03:25:16;14.13;;;8.47;;
48042;SDS011;33988;47.992;8.820;2023-03-01T03:27:45;15.68;;;8.95;;
48042;SDS011;33988;47.992;8.820;2023-03-01T03:30:15;15.18;;;10.00;;
48042;SDS011;33988;47.992;8.820;2023-03-01T03:32:46;15.45;;;9.60;;
48042;SDS011;33988;47.992;8.820;2023-03-01T03:35:26;15.02;;;9.65;;
48042;SDS011;33988;47.992;8.820;2023-03-01T03:38:06;14.18;;;8.68;;
48042;SDS011;33988;47.992;8.820;2023-03-01T03:40:48;16.15;;;9.27;;
48042;SDS011;33988;47.992;8.820;2023-03-01T03:43:30;13.70;;;8.43;;
48042;SDS011;33988;47.992;8.820;2023-03-01T03:46:07;15.43;;;9.75;;
48042;SDS011;33988;47.992;8.820;2023-03-01T03:48:38;14.90;;;9.38;;
48042;SDS011;33988;47.992;8.820;2023-03-01T03:51:11;14.23;;;9.02;;
48042;SDS011;33988;47.992;8.820;2023-03-01T03:53:42;14.52;;;9.00;;
48042;SDS011;33988;47.992;8.820;2023-03-01T03:56:14;15.40;;;9.55;;
48042;SDS011;33988;47.992;8.820;2023-03-01T03:58:44;17.95;;;10.15;;
48042;SDS011;33988;47.992;8.820;2023-03-01T04:01:13;15.85;;;10.35;;
48042;SDS011;33988;47.992;8.820;2023-03-01T04:03:40;16.23;;;9.52;;
48042;SDS011;33988;47.992;8.820;2023-03-01T04:06:07;16.88;;;9.95;;
48042;SDS011;33988;47.992;8.820;2023-03-01T04:08:34;16.73;;;9.63;;
48042;SDS011;33988;47.992;8.820;2023-03-01T04:11:02;15.27;;;10.38;;
48042;SDS011;33988;47.992;8.820;2023-03-01T04:13:53;14.13;;;8.98;;
48042;SDS011;33988;47.992;8.820;2023-03-01T04:16:23;16.42;;;9.85;;
48042;SDS011;33988;47.992;8.820;2023-03-01T04:18:51;16.65;;;9.73;;
48042;SDS011;33988;47.992;8.820;2023-03-01T04:21:21;15.90;;;9.70;;
48042;SDS011;33988;47.992;8.820;2023-03-01T04:23:53;15.60;;;9.82;;
48042;SDS011;33988;47.992;8.820;2023-03-01T04:26:22;16.23;;;10.18;;
48042;SDS011;33988;47.992;8.820;2023-03-01T04:28:49;15.98;;;9.43;;
48042;SDS011;33988;47.992;8.820;2023-03-01T04:31:17;17.30;;;10.75;;
48042;SDS011;33988;47.992;8.820;2023-03-01T04:33:48;14.97;;;9.40;;
48042;SDS011;33988;47.992;8.820;2023-03-01T04:36:26;15.82;;;10.43;;
48042;SDS011;33988;47.992;8.820;2023-03-01T04:38:58;16.98;;;10.48;;
48042;SDS011;33988;47.992;8.820;2023-03-01T04:41:25;18.63;;;10.73;;
48042;SDS011;33988;47.992;8.820;2023-03-01T04:43:57;15.55;;;9.63;;
48042;SDS011;33988;47.992;8.820;2023-03-01T04:46:26;16.40;;;10.00;;
48042;SDS011;33988;47.992;8.820;2023-03-01T04:48:53;15.57;;;10.43;;
48042;SDS011;33988;47.992;8.820;2023-03-01T04:51:24;16.90;;;9.43;;
48042;SDS011;33988;47.992;8.820;2023-03-01T04:53:51;16.85;;;9.88;;
48042;SDS011;33988;47.992;8.820;2023-03-01T04:56:18;16.92;;;10.50;;
48042;SDS011;33988;47.992;8.820;2023-03-01T04:58:45;17.13;;;10.38;;
48042;SDS011;33988;47.992;8.820;2023-03-01T05:01:16;15.52;;;10.35;;
48042;SDS011;33988;47.992;8.820;2023-03-01T05:03:46;18.27;;;10.45;;
48042;SDS011;33988;47.992;8.820;2023-03-01T05:06:20;16.55;;;10.48;;
48042;SDS011;33988;47.992;8.820;2023-03-01T05:08:47;17.73;;;9.90;;
48042;SDS011;33988;47.992;8.820;2023-03-01T05:11:14;14.18;;;9.27;;
48042;SDS011;33988;47.992;8.820;2023-03-01T05:13:41;15.25;;;9.68;;
48042;SDS011;33988;47.992;8.820;2023-03-01T05:16:09;16.27;;;10.20;;
48042;SDS011;33988;47.992;8.820;2023-03-01T05:18:38;18.05;;;10.02;;
48042;SDS011;33988;47.992;8.820;2023-03-01T05:21:07;16.90;;;9.98;;
48042;SDS011;33988;47.992;8.820;2023-03-01T05:23:37;14.48;;;9.35;;
48042;SDS011;33988;47.992;8.820;2023-03-01T05:26:05;14.57;;;9.80;;
48042;SDS011;33988;47.992;8.820;2023-03-01T05:28:41;21.00;;;11.85;;
48042;SDS011;33988;47.992;8.820;2023-03-01T05:31:08;15.60;;;10.15;;
48042;SDS011;33988;47.992;8.820;2023-03-01T05:33:41;14.98;;;9.48;;
48042;SDS011;33988;47.992;8.820;2023-03-01T05:36:10;15.77;;;9.70;;
48042;SDS011;33988;47.992;8.820;2023-03-01T05:38:37;16.83;;;9.70;;
48042;SDS011;33988;47.992;8.820;2023-03-01T05:41:04;16.45;;;9.93;;
48042;SDS011;33988;47.992;8.820;2023-03-01T05:43:33;14.80;;;9.32;;
48042;SDS011;33988;47.992;8.820;2023-03-01T05:46:00;16.52;;;10.10;;
48042;SDS011;33988;47.992;8.820;2023-03-01T05:48:29;15.27;;;9.35;;
48042;SDS011;33988;47.992;8.820;2023-03-01T05:50:59;15.95;;;9.52;;
48042;SDS011;33988;47.992;8.820;2023-03-01T05:53:26;13.73;;;9.23;;
48042;SDS011;33988;47.992;8.820;2023-03-01T05:55:53;16.48;;;10.13;;
48042;SDS011;33988;47.992;8.820;2023-03-01T05:58:21;16.13;;;9.75;;
48042;SDS011;33988;47.992;8.820;2023-03-01T06:00:48;14.68;;;8.95;;
48042;SDS011;33988;47.992;8.820;2023-03-01T06:03:16;19.42;;;10.60;;
48042;SDS011;33988;47.992;8.820;2023-03-01T06:05:44;16.17;;;9.05;;
48042;SDS011;33988;47.992;8.820;2023-03-01T06:08:11;15.30;;;9.18;;
48042;SDS011;33988;47.992;8.820;2023-03-01T06:10:41;16.80;;;10.02;;
48042;SDS011;33988;47.992;8.820;2023-03-01T06:13:10;15.27;;;9.68;;
48042;SDS011;33988;47.992;8.820;2023-03-01T06:15:37;14.50;;;8.90;;
48042;SDS011;33988;47.992;8.820;2023-03-01T06:18:04;15.77;;;9.35;;
48042;SDS011;33988;47.992;8.820;2023-03-01T06:20:30;16.00;;;10.10;;
48042;SDS011;33988;47.992;8.820;2023-03-01T06:22:57;16.30;;;9.35;;
48042;SDS011;33988;47.992;8.820;2023-03-01T06:25:26;16.80;;;9.27;;
48042;SDS011;33988;47.992;8.820;2023-03-01T06:27:53;17.27;;;9.90;;
48042;SDS011;33988;47.992;8.820;2023-03-01T06:30:23;16.15;;;9.45;;
48042;SDS011;33988;47.992;8.820;2023-03-01T06:32:51;14.93;;;8.98;;
48042;SDS011;33988;47.992;8.820;2023-03-01T06:35:19;16.65;;;8.88;;
48042;SDS011;33988;47.992;8.820;2023-03-01T06:37:48;13.05;;;8.35;;
48042;SDS011;33988;47.992;8.820;2023-03-01T06:40:15;14.20;;;9.10;;
48042;SDS011;33988;47.992;8.820;2023-03-01T06:42:48;13.90;;;9.00;;
48042;SDS011;33988;47.992;8.820;2023-03-01T06:45:17;15.48;;;9.10;;
48042;SDS011;33988;47.992;8.820;2023-03-01T06:47:45;16.38;;;9.55;;
48042;SDS011;33988;47.992;8.820;2023-03-01T06:50:14;15.32;;;9.52;;
48042;SDS011;33988;47.992;8.820;2023-03-01T06:52:43;16.55;;;10.38;;
48042;SDS011;33988;47.992;8.820;2023-03-01T06:55:11;16.48;;;9.98;;
48042;SDS011;33988;47.992;8.820;2023-03-01T06:57:42;15.55;;;9.68;;
48042;SDS011;33988;47.992;8.820;2023-03-01T07:00:14;14.10;;;8.73;;
48042;SDS011;33988;47.992;8.820;2023-03-01T07:02:41;16.88;;;9.75;;
48042;SDS011;33988;47.992;8.820;2023-03-01T07:05:08;16.00;;;9.40;;
48042;SDS011;33988;47.992;8.820;2023-03-01T07:07:37;14.40;;;9.35;;
48042;SDS011;33988;47.992;8.820;2023-03-01T07:10:04;14.48;;;8.77;;
48042;SDS011;33988;47.992;8.820;2023-03-01T07:12:35;15.13;;;9.33;;
48042;SDS011;33988;47.992;8.820;2023-03-01T07:15:08;14.23;;;8.93;;
48042;SDS011;33988;47.992;8.820;2023-03-01T07:17:35;14.57;;;8.63;;
48042;SDS011;33988;47.992;8.820;2023-03-01T07:20:07;13.52;;;8.63;;
48042;SDS011;33988;47.992;8.820;2023-03-01T07:22:39;13.50;;;8.77;;
48042;SDS011;33988;47.992;8.820;2023-03-01T07:25:08;15.70;;;9.32;;
48042;SDS011;33988;47.992;8.820;2023-03-01T07:27:36;15.85;;;9.13;;
48042;SDS011;33988;47.992;8.820;2023-03-01T07:30:03;12.77;;;8.73;;
48042;SDS011;33988;47.992;8.820;2023-03-01T07:32:31;13.57;;;8.88;;
48042;SDS011;33988;47.992;8.820;2023-03-01T07:35:00;13.55;;;8.43;;
48042;SDS011;33988;47.992;8.820;2023-03-01T07:37:30;13.52;;;8.88;;
48042;SDS011;33988;47.992;8.820;2023-03-01T07:39:59;15.10;;;9.15;;
48042;SDS011;33988;47.992;8.820;2023-03-01T07:42:26;14.80;;;9.02;;
48042;SDS011;33988;47.992;8.820;2023-03-01T07:44:53;14.07;;;9.25;;
48042;SDS011;33988;47.992;8.820;2023-03-01T07:47:20;16.92;;;9.98;;
48042;SDS011;33988;47.992;8.820;2023-03-01T07:49:47;15.50;;;9.38;;
48042;SDS011;33988;47.992;8.820;2023-03-01T07:52:14;15.18;;;9.68;;
48042;SDS011;33988;47.992;8.820;2023-03-01T07:54:45;13.57;;;8.88;;
48042;SDS011;33988;47.992;8.820;2023-03-01T07:57:12;14.65;;;9.30;;
48042;SDS011;33988;47.992;8.820;2023-03-01T07:59:39;15.75;;;9.02;;
48042;SDS011;33988;47.992;8.820;2023-03-01T08:02:08;14.32;;;8.70;;
48042;SDS011;33988;47.992;8.820;2023-03-01T08:04:37;14.82;;;9.20;;
48042;SDS011;33988;47.992;8.820;2023-03-01T08:07:04;16.63;;;10.25;;
48042;SDS011;33988;47.992;8.820;2023-03-01T08:09:33;14.68;;;9.13;;
48042;SDS011;33988;47.992;8.820;2023-03-01T08:12:04;16.23;;;8.93;;
48042;SDS011;33988;47.992;8.820;2023-03-01T08:14:33;13.48;;;8.73;;
48042;SDS011;33988;47.992;8.820;2023-03-01T08:17:00;16.13;;;9.43;;
48042;SDS011;33988;47.992;8.820;2023-03-01T08:19:29;15.32;;;9.32;;
48042;SDS011;33988;47.992;8.820;2023-03-01T08:21:56;16.05;;;9.77;;
48042;SDS011;33988;47.992;8.820;2023-03-01T08:24:24;15.80;;;8.93;;
48042;SDS011;33988;47.992;8.820;2023-03-01T08:26:51;16.45;;;9.15;;
48042;SDS011;33988;47.992;8.820;2023-03-01T08:29:21;14.93;;;9.57;;
48042;SDS011;33988;47.992;8.820;2023-03-01T08:31:48;14.57;;;8.63;;
48042;SDS011;33988;47.992;8.820;2023-03-01T08:34:18;14.65;;;8.43;;
48042;SDS011;33988;47.992;8.820;2023-03-01T08:36:45;12.38;;;8.50;;
48042;SDS011;33988;47.992;8.820;2023-03-01T08:39:13;15.63;;;8.93;;
48042;SDS011;33988;47.992;8.820;2023-03-01T08:41:46;14.07;;;8.85;;
48042;SDS011;33988;47.992;8.820;2023-03-01T08:44:14;14.65;;;9.63;;
48042;SDS011;33988;47.992;8.820;2023-03-01T08:46:45;14.55;;;8.77;;
48042;SDS011;33988;47.992;8.820;2023-03-01T08:49:17;15.00;;;9.30;;
48042;SDS011;33988;47.992;8.820;2023-03-01T08:51:45;13.43;;;9.52;;
48042;SDS011;33988;47.992;8.820;2023-03-01T08:54:18;15.20;;;9.57;;
48042;SDS011;33988;47.992;8.820;2023-03-01T08:56:48;15.73;;;9.32;;
48042;SDS011;33988;47.992;8.820;2023-03-01T08:59:15;15.25;;;8.75;;
48042;SDS011;33988;47.992;8.820;2023-03-01T09:01:43;17.02;;;9.57;;
48042;SDS011;33988;47.992;8.820;2023-03-01T09:04:12;15.50;;;9.60;;
48042;SDS011;33988;47.992;8.820;2023-03-01T09:06:43;13.55;;;8.77;;
48042;SDS011;33988;47.992;8.820;2023-03-01T09:09:13;13.48;;;8.73;;
48042;SDS011;33988;47.992;8.820;2023-03-01T09:11:44;14.57;;;8.98;;
48042;SDS011;33988;47.992;8.820;2023-03-01T09:14:16;12.52;;;7.75;;
48042;SDS011;33988;47.992;8.820;2023-03-01T09:16:43;13.13;;;8.45;;
48042;SDS011;33988;47.992;8.820;2023-03-01T09:19:11;14.98;;;9.70;;
48042;SDS011;33988;47.992;8.820;2023-03-01T09:21:43;17.50;;;10.32;;
48042;SDS011;33988;47.992;8.820;2023-03-01T09:24:19;15.50;;;9.13;;
48042;SDS011;33988;47.992;8.820;2023-03-01T09:26:52;14.90;;;9.57;;
48042;SDS011;33988;47.992;8.820;2023-03-01T09:29:24;13.38;;;7.85;;
48042;SDS011;33988;47.992;8.820;2023-03-01T09:31:56;15.25;;;8.60;;
48042;SDS011;33988;47.992;8.820;2023-03-01T09:34:24;13.57;;;8.48;;
48042;SDS011;33988;47.992;8.820;2023-03-01T09:36:51;13.90;;;8.18;;
48042;SDS011;33988;47.992;8.820;2023-03-01T09:39:18;18.17;;;9.65;;
48042;SDS011;33988;47.992;8.820;2023-03-01T09:44:42;15.68;;;8.95;;
48042;SDS011;33988;47.992;8.820;2023-03-01T09:47:25;14.85;;;8.48;;
48042;SDS011;33988;47.992;8.820;2023-03-01T09:50:04;14.00;;;8.45;;
48042;SDS011;33988;47.992;8.820;2023-03-01T09:52:44;12.80;;;8.25;;
48042;SDS011;33988;47.992;8.820;2023-03-01T09:55:27;15.07;;;9.25;;
48042;SDS011;33988;47.992;8.820;2023-03-01T10:00:47;10.85;;;7.00;;
48042;SDS011;33988;47.992;8.820;2023-03-01T10:09:00;13.60;;;7.85;;
48042;SDS011;33988;47.992;8.820;2023-03-01T10:11:43;14.68;;;8.05;;
48042;SDS011;33988;47.992;8.820;2023-03-01T10:14:39;16.02;;;9.00;;
48042;SDS011;33988;47.992;8.820;2023-03-01T10:20:33;13.73;;;8.65;;
48042;SDS011;33988;47.992;8.820;2023-03-01T10:23:13;17.58;;;9.82;;
48042;SDS011;33988;47.992;8.820;2023-03-01T10:25:48;18.17;;;9.25;;
48042;SDS011;33988;47.992;8.820;2023-03-01T10:31:38;16.83;;;10.07;;
48042;SDS011;33988;47.992;8.820;2023-03-01T10:36:53;15.73;;;9.93;;
48042;SDS011;33988;47.992;8.820;2023-03-01T10:40:05;14.68;;;9.23;;
48042;SDS011;33988;47.992;8.820;2023-03-01T10:42:38;13.38;;;8.48;;
48042;SDS011;33988;47.992;8.820;2023-03-01T10:48:17;15.13;;;9.60;;
48042;SDS011;33988;47.992;8.820;2023-03-01T10:50:48;13.60;;;9.02;;
48042;SDS011;33988;47.992;8.820;2023-03-01T10:53:44;15.23;;;9.40;;
48042;SDS011;33988;47.992;8.820;2023-03-01T10:56:17;16.85;;;8.75;;
48042;SDS011;33988;47.992;8.820;2023-03-01T10:59:00;15.02;;;9.07;;
48042;SDS011;33988;47.992;8.820;2023-03-01T11:01:31;13.43;;;8.90;;
48042;SDS011;33988;47.992;8.820;2023-03-01T11:06:34;15.13;;;9.70;;
48042;SDS011;33988;47.992;8.820;2023-03-01T11:09:17;13.57;;;8.40;;
48042;SDS011;33988;47.992;8.820;2023-03-01T11:11:45;14.77;;;9.80;;
48042;SDS011;33988;47.992;8.820;2023-03-01T11:14:16;14.27;;;9.15;;
48042;SDS011;33988;47.992;8.820;2023-03-01T11:17:12;15.55;;;9.82;;
48042;SDS011;33988;47.992;8.820;2023-03-01T11:22:44;15.68;;;8.95;;
48042;SDS011;33988;47.992;8.820;2023-03-01T11:25:24;14.13;;;9.20;;
48042;SDS011;33988;47.992;8.820;2023-03-01T11:27:54;14.23;;;9.55;;
48042;SDS011;33988;47.992;8.820;2023-03-01T11:30:28;16.58;;;9.95;;
48042;SDS011;33988;47.992;8.820;2023-03-01T11:36:07;12.82;;;8.95;;
48042;SDS011;33988;47.992;8.820;2023-03-01T11:39:05;12.00;;;8.45;;
48042;SDS011;33988;47.992;8.820;2023-03-01T11:42:06;12.57;;;8.68;;
48042;SDS011;33988;47.992;8.820;2023-03-01T11:44:50;16.13;;;9.52;;
48042;SDS011;33988;47.992;8.820;2023-03-01T11:50:07;14.80;;;9.63;;
48042;SDS011;33988;47.992;8.820;2023-03-01T12:04:41;14.40;;;9.68;;
48042;SDS011;33988;47.992;8.820;2023-03-01T12:10:38;15.50;;;10.25;;
48042;SDS011;33988;47.992;8.820;2023-03-01T12:31:32;15.10;;;10.40;;
48042;SDS011;33988;47.992;8.820;2023-03-01T12:42:56;16.58;;;9.90;;
48042;SDS011;33988;47.992;8.820;2023-03-01T12:51:15;15.27;;;9.05;;
48042;SDS011;33988;47.992;8.820;2023-03-01T12:53:49;16.88;;;10.32;;
48042;SDS011;33988;47.992;8.820;2023-03-01T12:56:25;17.02;;;10.60;;
48042;SDS011;33988;47.992;8.820;2023-03-01T13:17:49;18.27;;;11.45;;
48042;SDS011;33988;47.992;8.820;2023-03-01T13:23:06;15.77;;;9.88;;
48042;SDS011;33988;47.992;8.820;2023-03-01T13:33:46;18.20;;;11.23;;
48042;SDS011;33988;47.992;8.820;2023-03-01T13:38:59;17.45;;;10.50;;
48042;SDS011;33988;47.992;8.820;2023-03-01T13:55:16;15.50;;;9.93;;
48042;SDS011;33988;47.992;8.820;2023-03-01T13:57:49;15.77;;;10.70;;
48042;SDS011;33988;47.992;8.820;2023-03-01T14:00:47;17.00;;;11.60;;
48042;SDS011;33988;47.992;8.820;2023-03-01T14:03:15;16.35;;;10.60;;
48042;SDS011;33988;47.992;8.820;2023-03-01T14:05:58;17.30;;;10.85;;
48042;SDS011;33988;47.992;8.820;2023-03-01T14:08:42;15.32;;;10.30;;
48042;SDS011;33988;47.992;8.820;2023-03-01T14:11:22;17.30;;;11.25;;
48042;SDS011;33988;47.992;8.820;2023-03-01T14:20:16;16.25;;;10.00;;
48042;SDS011;33988;47.992;8.820;2023-03-01T14:22:55;15.40;;;10.07;;
48042;SDS011;33988;47.992;8.820;2023-03-01T14:25:30;18.17;;;11.00;;
48042;SDS011;33988;47.992;8.820;2023-03-01T14:28:04;17.92;;;11.23;;
48042;SDS011;33988;47.992;8.820;2023-03-01T14:30:44;16.67;;;11.18;;
48042;SDS011;33988;47.992;8.820;2023-03-01T14:33:22;16.73;;;10.65;;
48042;SDS011;33988;47.992;8.820;2023-03-01T14:38:37;16.58;;;10.70;;
48042;SDS011;33988;47.992;8.820;2023-03-01T14:43:46;17.83;;;10.85;;
48042;SDS011;33988;47.992;8.820;2023-03-01T14:46:20;18.10;;;11.30;;
48042;SDS011;33988;47.992;8.820;2023-03-01T14:48:57;17.00;;;10.50;;
48042;SDS011;33988;47.992;8.820;2023-03-01T14:51:34;20.10;;;11.70;;
48042;SDS011;33988;47.992;8.820;2023-03-01T14:57:20;16.25;;;11.00;;
48042;SDS011;33988;47.992;8.820;2023-03-01T14:59:57;15.88;;;10.85;;
48042;SDS011;33988;47.992;8.820;2023-03-01T15:02:31;17.10;;;11.45;;
48042;SDS011;33988;47.992;8.820;2023-03-01T15:05:02;14.90;;;10.65;;
48042;SDS011;33988;47.992;8.820;2023-03-01T15:07:35;18.10;;;11.05;;
48042;SDS011;33988;47.992;8.820;2023-03-01T15:10:06;14.32;;;10.40;;
48042;SDS011;33988;47.992;8.820;2023-03-01T15:12:43;19.10;;;11.98;;
48042;SDS011;33988;47.992;8.820;2023-03-01T15:15:20;20.65;;;11.50;;
48042;SDS011;33988;47.992;8.820;2023-03-01T15:17:55;18.65;;;11.77;;
48042;SDS011;33988;47.992;8.820;2023-03-01T15:20:26;16.85;;;11.02;;
48042;SDS011;33988;47.992;8.820;2023-03-01T15:22:55;18.38;;;10.80;;
48042;SDS011;33988;47.992;8.820;2023-03-01T15:25:24;17.13;;;11.20;;
48042;SDS011;33988;47.992;8.820;2023-03-01T15:27:54;17.30;;;11.40;;
48042;SDS011;33988;47.992;8.820;2023-03-01T15:30:32;17.80;;;10.82;;
48042;SDS011;33988;47.992;8.820;2023-03-01T15:35:58;15.68;;;10.88;;
48042;SDS011;33988;47.992;8.820;2023-03-01T15:41:03;16.88;;;11.70;;
48042;SDS011;33988;47.992;8.820;2023-03-01T15:43:52;18.63;;;11.13;;
48042;SDS011;33988;47.992;8.820;2023-03-01T15:46:32;18.40;;;11.38;;
48042;SDS011;33988;47.992;8.820;2023-03-01T15:49:05;20.20;;;11.95;;
48042;SDS011;33988;47.992;8.820;2023-03-01T15:55:06;17.80;;;11.52;;
48042;SDS011;33988;47.992;8.820;2023-03-01T15:57:42;17.20;;;12.07;;
48042;SDS011;33988;47.992;8.820;2023-03-01T16:00:15;17.63;;;11.85;;
48042;SDS011;33988;47.992;8.820;2023-03-01T16:02:46;18.50;;;11.57;;
48042;SDS011;33988;47.992;8.820;2023-03-01T16:05:19;18.40;;;12.13;;
48042;SDS011;33988;47.992;8.820;2023-03-01T16:07:54;19.63;;;12.13;;
48042;SDS011;33988;47.992;8.820;2023-03-01T16:10:23;17.38;;;11.63;;
48042;SDS011;33988;47.992;8.820;2023-03-01T16:12:51;18.88;;;12.20;;
48042;SDS011;33988;47.992;8.820;2023-03-01T16:15:20;18.95;;;12.52;;
48042;SDS011;33988;47.992;8.820;2023-03-01T16:17:52;18.90;;;11.65;;
48042;SDS011;33988;47.992;8.820;2023-03-01T16:20:22;16.95;;;11.60;;
48042;SDS011;33988;47.992;8.820;2023-03-01T16:22:59;18.40;;;12.30;;
48042;SDS011;33988;47.992;8.820;2023-03-01T16:25:36;20.67;;;13.05;;
48042;SDS011;33988;47.992;8.820;2023-03-01T16:28:05;18.23;;;13.07;;
48042;SDS011;33988;47.992;8.820;2023-03-01T16:30:37;18.33;;;12.40;;
48042;SDS011;33988;47.992;8.820;2023-03-01T16:33:07;18.52;;;12.40;;
48042;SDS011;33988;47.992;8.820;2023-03-01T16:35:52;18.23;;;12.07;;
48042;SDS011;33988;47.992;8.820;2023-03-01T16:38:21;16.88;;;11.85;;
48042;SDS011;33988;47.992;8.820;2023-03-01T16:40:49;18.27;;;11.82;;
48042;SDS011;33988;47.992;8.820;2023-03-01T16:43:18;19.95;;;13.05;;
48042;SDS011;33988;47.992;8.820;2023-03-01T16:45:45;18.42;;;11.75;;
48042;SDS011;33988;47.992;8.820;2023-03-01T16:48:12;18.30;;;11.52;;
48042;SDS011;33988;47.992;8.820;2023-03-01T16:50:40;19.10;;;12.30;;
48042;SDS011;33988;47.992;8.820;2023-03-01T16:53:07;25.63;;;16.20;;
48042;SDS011;33988;47.992;8.820;2023-03-01T16:55:34;25.23;;;15.63;;
48042;SDS011;33988;47.992;8.820;2023-03-01T16:58:04;24.67;;;15.02;;
48042;SDS011;33988;47.992;8.820;2023-03-01T17:00:33;21.98;;;14.18;;
48042;SDS011;33988;47.992;8.820;2023-03-01T17:03:02;22.38;;;13.75;;
48042;SDS011;33988;47.992;8.820;2023-03-01T17:05:29;20.15;;;13.00;;
48042;SDS011;33988;47.992;8.820;2023-03-01T17:07:58;21.77;;;13.52;;
48042;SDS011;33988;47.992;8.820;2023-03-01T17:10:30;23.20;;;13.77;;
48042;SDS011;33988;47.992;8.820;2023-03-01T17:12:59;23.65;;;13.82;;
48042;SDS011;33988;47.992;8.820;2023-03-01T17:15:28;26.63;;;14.80;;
48042;SDS011;33988;47.992;8.820;2023-03-01T17:17:55;25.75;;;14.90;;
48042;SDS011;33988;47.992;8.820;2023-03-01T17:20:22;25.75;;;16.13;;
48042;SDS011;33988;47.992;8.820;2023-03-01T17:22:49;25.90;;;15.80;;
48042;SDS011;33988;47.992;8.820;2023-03-01T17:25:18;26.25;;;16.55;;
48042;SDS011;33988;47.992;8.820;2023-03-01T17:27:45;28.42;;;17.20;;
48042;SDS011;33988;47.992;8.820;2023-03-01T17:30:16;23.90;;;16.38;;
48042;SDS011;33988;47.992;8.820;2023-03-01T17:32:43;27.00;;;16.83;;
48042;SDS011;33988;47.992;8.820;2023-03-01T17:35:13;22.63;;;15.95;;
48042;SDS011;33988;47.992;8.820;2023-03-01T17:37:39;24.15;;;15.40;;
48042;SDS011;33988;47.992;8.820;2023-03-01T17:40:11;23.35;;;14.88;;
48042;SDS011;33988;47.992;8.820;2023-03-01T17:42:39;25.10;;;16.80;;
48042;SDS011;33988;47.992;8.820;2023-03-01T17:45:06;23.45;;;14.85;;
48042;SDS011;33988;47.992;8.820;2023-03-01T17:47:36;22.35;;;14.88;;